createdAt,value
2019-03-26T21:49:22.530Z,15.87
2019-03-26T21:51:52.697Z,21.90
2019-03-26T21:54:22.794Z,19.57
2019-03-26T21:56:52.824Z,27.17
2019-03-26T21:59:25.240Z,18.03
2019-03-26T22:01:55.515Z,23.10
2019-03-26T22:04:25.645Z,20.90
2019-03-26T22:06:55.767Z,50.23
2019-03-26T22:09:25.797Z,56.27
2019-03-26T22:11:55.853Z,45.50
2019-03-26T22:14:26.067Z,38.60
2019-03-26T22:16:56.313Z,32.73
2019-03-26T22:19:28.695Z,20.00
2019-03-26T22:21:57.848Z,15.67
2019-03-26T22:24:27.932Z,21.93
2019-03-26T22:26:57.954Z,20.17
2019-03-26T22:29:28.043Z,20.07
2019-03-26T22:31:58.023Z,15.07
2019-03-26T22:34:27.960Z,22.27
2019-03-26T22:36:57.940Z,17.93
2019-03-26T22:39:27.870Z,22.87
2019-03-26T22:41:57.885Z,25.63
2019-03-26T22:44:31.672Z,23.33
2019-03-26T22:46:59.485Z,19.73
2019-03-26T22:49:29.407Z,19.10
2019-03-26T22:51:59.399Z,22.97
2019-03-26T22:54:29.390Z,21.37
2019-03-26T22:56:59.319Z,20.60
2019-03-26T22:59:30.307Z,24.60
2019-03-26T23:02:00.427Z,19.37
2019-03-26T23:04:30.415Z,19.57
2019-03-26T23:07:00.493Z,21.80
2019-03-26T23:09:30.482Z,20.97
2019-03-26T23:12:00.460Z,19.07
2019-03-26T23:14:43.947Z,19.07
2019-03-26T23:17:03.446Z,21.30
2019-03-26T23:19:33.462Z,21.43
2019-03-26T23:22:03.559Z,21.40
2019-03-26T23:24:33.579Z,20.87
2019-03-26T23:27:03.666Z,18.90
